Andrica, Romania

4:15 AM EET on January 21, 2017 (GMT +0200)
Dumbravita | | Change Station

Elev 305 ft 45.80 °N, 21.24 °E | Updated 15 seconds ago

Partly Cloudy
Partly Cloudy
17.1 °F
Feels Like 17 °F
N
0.0
Wind Variable Wind from East
Gusts 0.0 mph

Today
High -- | Low -- °F
--% Chance of Precip.
Yesterday
High -- | Low -- °F
Precip. -- in
Pressure 30.57 in
Visibility 0.2 miles
Clouds
Windchill 17 °F
Dew Point 15 °F
Humidity 92%
Rainfall 0.00 in
Snow Depth Not available.
8:06 AM 5:23 PM
Last Quarter, 39% visible
METAR LRTR 210200Z VRB02KT 0300 R11/0325N R29/0400N FZFG VV001 M07/M08 Q1035
Pressure 30.57 in
Visibility 0.2 miles
Clouds
Windchill 17 °F
Dew Point 15 °F
Humidity 92%
Rainfall 0.00 in
Snow Depth Not available.
8:06 AM 5:23 PM
Last Quarter, 39% visible
METAR LRTR 210200Z VRB02KT 0300 R11/0325N R29/0400N FZFG VV001 M07/M08 Q1035

Get Your Daily Forecast Email!

Thanks for signing up!

Be on the lookout for a verification email in your inbox.

You'll start receiving the daily forecast at 8 AM.

×

10-Day Weather Forecast

×

Almanac

Astronomy

Jan. 21, 2017 Rise Set
Actual Time
Civil Twilight
Nautical Twilight
Astronomical Twilight
Moon
Length of Visible Light
Length of Day
Tomorrow will be .
, % of the Moon is Illuminated

Today's Extremes

Country Highs Country Lows

Community

WunderPhotos

Upload Photos

1,962,540 photos uploaded!

WunderBlog® & News

Nearby

Air Quality

  Air Quality AQ Index Pollutant
Not available.

Snow Depth

Station Depth Elevation

Earthquake Activity

City Distance Mag. Time & Date
Minimum magnitude displayed is 2.5.

Coastal Water Temperatures

Place Temperature

Stations

Nearby Weather Stations

Station Location Temp. Windchill Dew Point Humidity Wind Precip. Elev Updated Type